createdAt,value
2019-02-11T00:00:37.125Z,11.57
2019-02-11T00:03:06.697Z,12.50
2019-02-11T00:05:36.032Z,9.53
2019-02-11T00:08:05.369Z,8.67
2019-02-11T00:10:34.773Z,7.60
2019-02-11T00:13:10.434Z,7.40
2019-02-11T00:15:35.169Z,12.17
2019-02-11T00:18:04.508Z,6.27
2019-02-11T00:20:33.841Z,10.00
2019-02-11T00:23:03.182Z,13.47
2019-02-11T00:25:32.517Z,10.00
2019-02-11T00:28:01.856Z,11.50
2019-02-11T00:30:31.192Z,11.37
2019-02-11T00:33:00.579Z,10.20
2019-02-11T00:35:29.866Z,14.87
2019-02-11T00:37:59.208Z,11.83
2019-02-11T00:40:28.537Z,8.77
2019-02-11T00:42:58.830Z,16.87
2019-02-11T00:45:28.166Z,11.63
2019-02-11T00:47:57.500Z,13.27
2019-02-11T00:50:26.838Z,10.23
2019-02-11T00:52:56.168Z,6.03
2019-02-11T00:55:25.507Z,11.03
2019-02-11T00:57:54.840Z,8.17
2019-02-11T01:00:24.179Z,12.40
2019-02-11T01:02:53.514Z,16.50
2019-02-11T01:05:22.849Z,9.03
2019-02-11T01:07:52.185Z,10.07
2019-02-11T01:10:21.533Z,13.00
2019-02-11T01:12:50.908Z,11.73
2019-02-11T01:15:20.243Z,11.50
2019-02-11T01:17:49.573Z,14.87
2019-02-11T01:20:18.957Z,5.73
2019-02-11T01:22:48.307Z,9.43
2019-02-11T01:25:17.638Z,10.47
2019-02-11T01:27:46.971Z,7.00
2019-02-11T01:30:16.310Z,11.43
2019-02-11T01:32:47.119Z,6.47
2019-02-11T01:35:16.459Z,10.23
2019-02-11T01:37:45.868Z,12.83
2019-02-11T01:40:15.200Z,8.60
2019-02-11T01:42:44.535Z,9.07
2019-02-11T01:45:14.010Z,5.90
2019-02-11T01:47:43.346Z,7.90
2019-02-11T01:50:13.922Z,10.17
2019-02-11T01:52:43.259Z,11.80
2019-02-11T01:55:12.592Z,8.60
2019-02-11T01:57:41.928Z,15.20
2019-02-11T02:00:14.794Z,8.43
2019-02-11T02:02:44.125Z,20.37
2019-02-11T02:05:13.456Z,22.03
2019-02-11T02:07:42.962Z,17.60
2019-02-11T02:10:18.225Z,14.27
2019-02-11T02:12:47.565Z,18.37
2019-02-11T02:15:16.965Z,13.47
2019-02-11T02:17:46.295Z,9.23
2019-02-11T02:20:15.900Z,15.67
2019-02-11T02:22:45.232Z,8.57
2019-02-11T02:25:14.573Z,17.30
2019-02-11T02:27:43.909Z,13.90
2019-02-11T02:30:14.801Z,16.57
2019-02-11T02:32:44.127Z,15.23
2019-02-11T02:35:13.462Z,12.93
2019-02-11T02:37:42.828Z,13.37
2019-02-11T02:40:12.160Z,12.83
2019-02-11T02:42:41.505Z,11.27
2019-02-11T02:45:11.407Z,17.60
2019-02-11T02:47:40.740Z,10.70
2019-02-11T02:50:10.947Z,11.73
2019-02-11T02:52:40.282Z,13.80
2019-02-11T02:55:10.055Z,15.67
2019-02-11T02:57:39.390Z,12.93
2019-02-11T03:00:12.913Z,12.40
2019-02-11T03:02:42.263Z,11.40
2019-02-11T03:05:11.671Z,18.03
2019-02-11T03:07:41.006Z,14.97
2019-02-11T03:10:11.949Z,21.17
2019-02-11T03:12:41.298Z,20.53
2019-02-11T03:15:11.964Z,13.77
2019-02-11T03:17:41.315Z,12.33
2019-02-11T03:20:10.980Z,11.20
2019-02-11T03:22:40.320Z,15.13
2019-02-11T03:25:10.168Z,15.43
2019-02-11T03:27:39.497Z,9.50
2019-02-11T03:30:10.847Z,11.60
2019-02-11T03:32:40.184Z,18.93
2019-02-11T03:35:09.524Z,19.10
2019-02-11T03:37:38.856Z,14.47
2019-02-11T03:40:10.234Z,16.87
2019-02-11T03:42:39.577Z,14.33
2019-02-11T03:45:13.953Z,21.20
2019-02-11T03:47:43.287Z,15.33
2019-02-11T03:50:13.259Z,10.23
2019-02-11T03:52:42.598Z,12.20
2019-02-11T03:55:12.000Z,9.63
2019-02-11T03:57:41.332Z,12.40
2019-02-11T04:00:12.779Z,12.13
2019-02-11T04:02:42.115Z,12.17
2019-02-11T04:05:11.523Z,14.90
2019-02-11T04:07:40.857Z,20.63
2019-02-11T04:10:11.740Z,13.73
2019-02-11T04:12:41.072Z,13.00
2019-02-11T04:15:10.888Z,18.03
2019-02-11T04:17:40.215Z,16.60
2019-02-11T04:20:09.984Z,12.73
2019-02-11T04:22:39.327Z,14.73
2019-02-11T04:25:08.821Z,18.10
2019-02-11T04:27:38.199Z,14.40
2019-02-11T04:30:10.105Z,15.27
2019-02-11T04:32:39.449Z,13.90
2019-02-11T04:35:08.777Z,10.83
2019-02-11T04:37:38.123Z,14.70
2019-02-11T04:40:11.168Z,15.70
2019-02-11T04:42:40.545Z,16.43
2019-02-11T04:45:11.063Z,7.37
2019-02-11T04:47:40.373Z,14.97
2019-02-11T04:50:10.954Z,18.60
2019-02-11T04:52:40.359Z,18.87
2019-02-11T04:55:10.834Z,15.43
2019-02-11T04:57:40.171Z,22.67
2019-02-11T05:00:14.910Z,16.83
2019-02-11T05:02:44.252Z,15.53
2019-02-11T05:05:14.349Z,10.87
2019-02-11T05:07:43.666Z,17.83
2019-02-11T05:10:17.576Z,14.00
2019-02-11T05:12:46.911Z,16.67
2019-02-11T05:15:16.245Z,20.73
2019-02-11T05:17:45.584Z,16.37
2019-02-11T05:20:14.920Z,14.33
2019-02-11T05:22:44.260Z,17.70
2019-02-11T05:25:13.590Z,12.37
2019-02-11T05:27:42.926Z,21.97
2019-02-11T05:30:12.797Z,13.17
2019-02-11T05:32:42.137Z,15.03
2019-02-11T05:35:11.474Z,16.10
2019-02-11T05:37:40.835Z,12.43
2019-02-11T05:40:12.409Z,22.13
2019-02-11T05:42:41.745Z,17.43
2019-02-11T05:45:11.086Z,19.57
2019-02-11T05:47:40.433Z,17.57
2019-02-11T05:50:12.277Z,16.80
2019-02-11T05:52:41.618Z,15.27
2019-02-11T05:55:10.955Z,16.80
2019-02-11T05:57:40.305Z,15.47
2019-02-11T06:00:14.051Z,16.87
2019-02-11T06:02:43.393Z,32.60
2019-02-11T06:05:12.730Z,14.70
2019-02-11T06:07:42.069Z,20.03
2019-02-11T06:10:12.115Z,20.10
2019-02-11T06:12:41.453Z,16.57
2019-02-11T06:15:11.025Z,15.97
2019-02-11T06:17:40.369Z,13.80
2019-02-11T06:20:10.946Z,35.97
2019-02-11T06:22:40.287Z,28.37
2019-02-11T06:25:09.737Z,51.73
2019-02-11T06:27:39.038Z,98.73
2019-02-11T06:30:12.493Z,111.50
2019-02-11T06:32:41.837Z,41.00
2019-02-11T06:35:11.175Z,40.00
2019-02-11T06:37:40.522Z,73.60
2019-02-11T06:40:11.674Z,69.87
2019-02-11T06:42:41.036Z,37.53
2019-02-11T06:45:13.450Z,32.50
2019-02-11T06:47:43.005Z,74.87
2019-02-11T06:50:20.409Z,60.87
2019-02-11T06:52:49.732Z,22.37
2019-02-11T06:55:19.070Z,27.87
2019-02-11T06:57:48.411Z,35.87
2019-02-11T07:00:17.808Z,28.60
2019-02-11T07:02:47.113Z,44.57
2019-02-11T07:05:16.442Z,20.17
2019-02-11T07:07:46.992Z,18.43
2019-02-11T07:10:16.339Z,19.23
2019-02-11T07:12:45.674Z,20.07
2019-02-11T07:15:21.660Z,17.97
2019-02-11T07:17:46.997Z,14.97
2019-02-11T07:20:16.336Z,18.10
2019-02-11T07:22:45.669Z,14.77
2019-02-11T07:25:16.541Z,23.23
2019-02-11T07:27:46.146Z,15.30
2019-02-11T07:30:15.790Z,34.57
2019-02-11T07:32:45.131Z,23.27
2019-02-11T07:35:14.470Z,24.93
2019-02-11T07:37:43.804Z,9.60
2019-02-11T07:40:13.323Z,35.83
2019-02-11T07:42:56.553Z,51.73
2019-02-11T07:45:30.145Z,59.00
2019-02-11T07:47:58.611Z,49.30
2019-02-11T07:50:27.950Z,21.20
2019-02-11T07:52:57.281Z,16.37
2019-02-11T07:55:26.634Z,12.97
2019-02-11T07:57:55.969Z,21.50
2019-02-11T08:00:26.145Z,17.17
2019-02-11T08:02:55.477Z,17.93
2019-02-11T08:05:24.813Z,12.20
2019-02-11T08:07:54.151Z,15.00
2019-02-11T08:10:23.485Z,13.60
2019-02-11T08:12:52.830Z,14.83
2019-02-11T08:15:22.168Z,14.70
2019-02-11T08:17:51.550Z,9.33
2019-02-11T08:20:20.885Z,11.67
2019-02-11T08:22:50.293Z,14.47
2019-02-11T08:25:19.635Z,10.10
2019-02-11T08:27:49.017Z,13.03
2019-02-11T08:30:18.357Z,10.60
2019-02-11T08:32:47.695Z,15.00
2019-02-11T08:35:17.032Z,14.50
2019-02-11T08:37:46.369Z,12.87
2019-02-11T08:40:15.706Z,19.73
2019-02-11T08:42:45.045Z,12.33
2019-02-11T08:45:14.383Z,17.57
2019-02-11T08:47:43.724Z,11.70
2019-02-11T08:50:13.062Z,11.97
2019-02-11T08:52:42.412Z,12.33
2019-02-11T08:55:11.750Z,9.57
2019-02-11T08:57:41.084Z,13.57
2019-02-11T09:00:12.423Z,8.63
2019-02-11T09:02:41.760Z,14.10
2019-02-11T09:05:11.107Z,15.33
2019-02-11T09:07:40.444Z,8.67
2019-02-11T09:10:12.397Z,17.07
2019-02-11T09:12:41.739Z,15.10
2019-02-11T09:15:12.981Z,14.60
2019-02-11T09:17:42.322Z,22.03
2019-02-11T09:20:12.257Z,17.17
2019-02-11T09:22:41.593Z,11.90
2019-02-11T09:25:12.268Z,12.33
2019-02-11T09:27:41.607Z,11.67
2019-02-11T09:30:16.756Z,18.97
2019-02-11T09:32:46.091Z,13.23
2019-02-11T09:35:15.596Z,14.87
2019-02-11T09:37:44.998Z,9.80
2019-02-11T09:40:16.634Z,11.03
2019-02-11T09:42:45.974Z,12.23
2019-02-11T09:45:22.350Z,10.47
2019-02-11T09:47:51.693Z,15.90
2019-02-11T09:50:40.329Z,6.63
2019-02-11T09:53:09.665Z,6.97
2019-02-11T09:55:39.109Z,8.23
2019-02-11T09:58:08.445Z,8.23
2019-02-11T10:00:37.793Z,10.40
2019-02-11T10:03:07.656Z,8.07
2019-02-11T10:05:36.991Z,12.23
2019-02-11T10:08:06.341Z,9.73
2019-02-11T10:10:35.670Z,11.17
2019-02-11T10:13:05.003Z,7.63
2019-02-11T10:15:34.337Z,22.73
2019-02-11T10:18:03.689Z,12.93
2019-02-11T10:20:33.021Z,10.87
2019-02-11T10:23:02.559Z,17.03
2019-02-11T10:25:32.365Z,9.47
2019-02-11T10:28:11.452Z,11.57
2019-02-11T10:30:40.851Z,8.80
2019-02-11T10:33:10.431Z,12.93
2019-02-11T10:35:42.291Z,15.90
2019-02-11T10:38:10.896Z,6.93
2019-02-11T10:40:40.235Z,20.03
2019-02-11T10:43:09.576Z,13.80
2019-02-11T10:45:38.904Z,8.23
2019-02-11T10:48:08.404Z,6.83
2019-02-11T10:50:37.742Z,11.10
2019-02-11T10:53:07.078Z,17.30
2019-02-11T10:55:36.413Z,15.27
2019-02-11T10:58:05.749Z,12.57
2019-02-11T11:00:36.263Z,12.47
2019-02-11T11:03:05.599Z,15.13
2019-02-11T11:05:35.119Z,24.17
2019-02-11T11:08:04.450Z,13.53
2019-02-11T11:10:39.633Z,15.57
2019-02-11T11:13:08.969Z,12.67
2019-02-11T11:15:38.373Z,16.27
2019-02-11T11:18:08.156Z,12.77
2019-02-11T11:20:37.485Z,16.07
2019-02-11T11:23:06.834Z,11.10
2019-02-11T11:25:36.170Z,21.83
2019-02-11T11:28:05.507Z,16.53
2019-02-11T11:30:37.022Z,19.37
2019-02-11T11:33:06.694Z,11.83
2019-02-11T11:35:36.033Z,20.83
2019-02-11T11:38:05.366Z,13.90
2019-02-11T11:40:34.705Z,12.00
2019-02-11T11:43:04.114Z,17.43
2019-02-11T11:45:33.788Z,17.63
2019-02-11T11:48:03.293Z,15.17
2019-02-11T11:50:32.634Z,11.90
2019-02-11T11:53:01.973Z,14.13
2019-02-11T11:55:31.391Z,20.17
2019-02-11T11:58:00.714Z,16.80
2019-02-11T12:00:35.188Z,13.33
2019-02-11T12:03:05.789Z,21.23
2019-02-11T12:05:35.516Z,16.63
2019-02-11T12:08:04.990Z,18.20
2019-02-11T12:10:34.331Z,25.93
2019-02-11T12:13:21.758Z,19.53
2019-02-11T12:15:34.729Z,20.53
2019-02-11T12:18:04.096Z,19.80
2019-02-11T12:20:34.280Z,16.47
2019-02-11T12:23:03.855Z,15.57
2019-02-11T12:25:33.207Z,13.43
2019-02-11T12:28:02.549Z,12.93
2019-02-11T12:30:31.897Z,14.10
2019-02-11T12:33:01.316Z,15.77
2019-02-11T12:35:30.672Z,11.47
2019-02-11T12:37:59.997Z,11.37
2019-02-11T12:40:29.334Z,15.80
2019-02-11T12:42:58.676Z,14.83
2019-02-11T12:45:28.341Z,13.63
2019-02-11T12:47:57.674Z,15.40
2019-02-11T12:50:27.098Z,15.43
2019-02-11T12:52:56.426Z,19.53
2019-02-11T12:55:25.759Z,16.40
2019-02-11T12:57:55.193Z,12.60
2019-02-11T13:00:25.720Z,13.57
2019-02-11T13:02:55.065Z,15.57
2019-02-11T13:05:43.339Z,14.63
2019-02-11T13:07:55.458Z,19.27
2019-02-11T13:10:24.799Z,11.70
2019-02-11T13:12:54.127Z,17.33
2019-02-11T13:15:56.586Z,12.27
2019-02-11T13:17:54.654Z,9.90
2019-02-11T13:20:24.057Z,17.37
2019-02-11T13:22:53.401Z,18.13
2019-02-11T13:25:22.738Z,16.03
2019-02-11T13:27:52.109Z,12.30
2019-02-11T13:30:25.958Z,18.90
2019-02-11T13:32:55.367Z,13.47
2019-02-11T13:35:24.708Z,11.77
2019-02-11T13:37:55.769Z,13.27
2019-02-11T13:40:25.105Z,11.77
2019-02-11T13:42:54.438Z,8.93
2019-02-11T13:45:23.778Z,14.33
2019-02-11T13:47:57.672Z,13.63
2019-02-11T13:50:26.732Z,12.10
2019-02-11T13:52:56.950Z,13.77
2019-02-11T13:55:30.716Z,8.33
2019-02-11T13:57:58.346Z,11.97
2019-02-11T14:00:29.998Z,11.13
2019-02-11T14:03:03.821Z,11.40
2019-02-11T14:05:34.082Z,8.67
2019-02-11T14:08:06.511Z,11.13
2019-02-11T14:10:35.952Z,10.70
2019-02-11T14:13:06.109Z,9.27
2019-02-11T14:15:35.503Z,13.27
2019-02-11T14:18:14.310Z,13.87
2019-02-11T14:20:41.519Z,8.33
2019-02-11T14:23:10.927Z,12.63
2019-02-11T14:25:45.940Z,9.17
2019-02-11T14:28:11.347Z,9.03
2019-02-11T14:30:40.661Z,7.63
2019-02-11T14:33:10.293Z,13.73
2019-02-11T14:35:39.619Z,7.77
2019-02-11T14:38:08.948Z,9.43
2019-02-11T14:40:38.309Z,11.30
2019-02-11T14:43:07.659Z,11.70
2019-02-11T14:45:36.994Z,12.00
2019-02-11T14:48:06.304Z,14.10
2019-02-11T14:50:35.649Z,18.07
2019-02-11T14:53:04.981Z,9.70
2019-02-11T14:55:34.323Z,14.90
2019-02-11T14:58:03.657Z,13.57
2019-02-11T15:00:32.994Z,13.10
2019-02-11T15:03:02.334Z,23.83
2019-02-11T15:05:31.826Z,9.50
2019-02-11T15:08:01.162Z,10.93
2019-02-11T15:10:30.602Z,11.80
2019-02-11T15:12:59.933Z,12.20
2019-02-11T15:15:29.264Z,10.50
2019-02-11T15:17:58.650Z,6.60
2019-02-11T15:20:28.009Z,10.63
2019-02-11T15:22:57.320Z,7.67
2019-02-11T15:25:26.655Z,13.27
2019-02-11T15:27:55.995Z,12.50
2019-02-11T15:30:25.328Z,13.40
2019-02-11T15:32:54.664Z,10.93
2019-02-11T15:35:24.043Z,12.37
2019-02-11T15:37:53.367Z,13.37
2019-02-11T15:40:23.835Z,13.57
2019-02-11T15:42:53.180Z,7.40
2019-02-11T15:45:22.582Z,9.27
2019-02-11T15:47:51.975Z,10.67
2019-02-11T15:50:21.305Z,9.37
2019-02-11T15:52:50.653Z,13.43
2019-02-11T15:55:21.549Z,12.80
2019-02-11T15:57:50.921Z,11.80
2019-02-11T16:00:24.709Z,13.73
2019-02-11T16:02:54.042Z,7.90
2019-02-11T16:05:23.386Z,10.57
2019-02-11T16:07:52.723Z,11.13
2019-02-11T16:10:27.948Z,8.27
2019-02-11T16:12:57.450Z,18.93
2019-02-11T16:15:26.790Z,12.17
2019-02-11T16:17:56.198Z,10.03
2019-02-11T16:20:25.534Z,15.87
2019-02-11T16:22:54.891Z,15.03
2019-02-11T16:25:24.294Z,8.87
2019-02-11T16:27:53.631Z,7.87
2019-02-11T16:30:22.967Z,12.80
2019-02-11T16:32:52.313Z,9.57
2019-02-11T16:35:21.650Z,12.13
2019-02-11T16:37:50.989Z,11.90
2019-02-11T16:40:24.302Z,12.10
2019-02-11T16:42:53.636Z,12.87
2019-02-11T16:45:23.173Z,14.40
2019-02-11T16:47:53.660Z,13.87
2019-02-11T16:50:22.993Z,11.37
2019-02-11T16:52:52.329Z,13.97
2019-02-11T16:55:21.683Z,20.00
2019-02-11T16:57:51.021Z,12.93
2019-02-11T17:00:21.204Z,15.27
2019-02-11T17:02:50.550Z,11.50
2019-02-11T17:05:19.887Z,20.33
2019-02-11T17:07:49.220Z,13.70
2019-02-11T17:10:18.621Z,9.20
2019-02-11T17:12:47.962Z,12.90
2019-02-11T17:15:21.160Z,17.00
2019-02-11T17:17:50.509Z,8.57
2019-02-11T17:20:19.917Z,12.37
2019-02-11T17:22:49.286Z,14.47
2019-02-11T17:25:18.635Z,14.70
2019-02-11T17:27:47.970Z,14.00
2019-02-11T17:30:27.654Z,16.20
2019-02-11T17:32:56.987Z,14.77
2019-02-11T17:35:26.519Z,11.73
2019-02-11T17:37:55.852Z,7.17
2019-02-11T17:40:25.185Z,8.63
2019-02-11T17:42:54.529Z,17.50
2019-02-11T17:45:30.055Z,10.40
2019-02-11T17:47:59.393Z,11.33
2019-02-11T17:50:28.732Z,14.77
2019-02-11T17:53:05.766Z,16.63
2019-02-11T17:55:35.135Z,5.73
2019-02-11T17:58:04.851Z,8.13
2019-02-11T18:00:42.823Z,13.70
2019-02-11T18:03:12.155Z,10.93
2019-02-11T18:05:41.512Z,98.40
2019-02-11T18:08:10.854Z,36.73
2019-02-11T18:10:40.195Z,17.80
2019-02-11T18:13:09.533Z,18.30
2019-02-11T18:15:38.869Z,9.80
2019-02-11T18:18:08.207Z,17.77
2019-02-11T18:20:37.554Z,14.77
2019-02-11T18:23:06.889Z,17.10
2019-02-11T18:25:36.314Z,12.13
2019-02-11T18:28:05.659Z,9.23
2019-02-11T18:30:34.997Z,7.10
2019-02-11T18:33:04.414Z,14.60
2019-02-11T18:35:33.754Z,14.03
2019-02-11T18:38:03.091Z,10.80
2019-02-11T18:40:32.431Z,11.87
2019-02-11T18:43:03.185Z,14.07
2019-02-11T18:45:32.515Z,13.77
2019-02-11T18:48:01.850Z,15.77
2019-02-11T18:50:31.189Z,12.13
2019-02-11T18:53:00.529Z,11.17
2019-02-11T18:55:29.874Z,14.30
2019-02-11T18:57:59.207Z,15.33
2019-02-11T19:00:28.548Z,14.53
2019-02-11T19:02:57.883Z,11.60
2019-02-11T19:05:27.231Z,16.23
2019-02-11T19:07:56.565Z,19.13
2019-02-11T19:10:26.236Z,7.60
2019-02-11T19:12:55.571Z,9.53
2019-02-11T19:15:24.905Z,19.83
2019-02-11T19:17:54.312Z,14.77
2019-02-11T19:20:23.646Z,10.83
2019-02-11T19:22:52.985Z,13.87
2019-02-11T19:25:22.318Z,16.50
2019-02-11T19:27:51.660Z,15.17
2019-02-11T19:30:26.812Z,48.60
2019-02-11T19:32:56.146Z,59.47
2019-02-11T19:35:25.483Z,28.17
2019-02-11T19:37:54.826Z,34.70
2019-02-11T19:40:24.163Z,107.50
2019-02-11T19:42:53.518Z,44.73
2019-02-11T19:45:24.264Z,75.93
2019-02-11T19:47:53.613Z,75.87
2019-02-11T19:50:22.949Z,132.90
2019-02-11T19:52:52.290Z,38.97
2019-02-11T19:55:21.627Z,27.10
2019-02-11T19:57:50.968Z,41.13
2019-02-11T20:00:21.916Z,141.63
2019-02-11T20:02:51.618Z,79.67
2019-02-11T20:05:21.227Z,154.83
2019-02-11T20:07:50.566Z,41.20
2019-02-11T20:10:24.751Z,134.77
2019-02-11T20:12:54.085Z,81.67
2019-02-11T20:15:29.580Z,21.30
2019-02-11T20:17:58.976Z,30.20
2019-02-11T20:20:28.313Z,21.57
2019-02-11T20:22:57.645Z,13.73
2019-02-11T20:25:26.977Z,11.87
2019-02-11T20:27:56.313Z,13.87
2019-02-11T20:30:31.190Z,15.67
2019-02-11T20:33:00.528Z,12.70
2019-02-11T20:35:29.857Z,13.97
2019-02-11T20:37:59.195Z,53.83
2019-02-11T20:40:30.133Z,18.93
2019-02-11T20:42:59.464Z,13.43
2019-02-11T20:45:29.912Z,21.00
2019-02-11T20:47:59.247Z,14.73
2019-02-11T20:50:28.577Z,11.73
2019-02-11T20:52:57.908Z,17.93
2019-02-11T20:55:27.239Z,13.63
2019-02-11T20:58:02.548Z,12.33
2019-02-11T21:00:31.881Z,13.77
2019-02-11T21:03:08.078Z,10.40
2019-02-11T21:05:32.280Z,12.57
2019-02-11T21:08:01.954Z,15.03
2019-02-11T21:10:32.897Z,15.27
2019-02-11T21:13:02.229Z,8.40
2019-02-11T21:15:31.555Z,13.23
2019-02-11T21:18:00.896Z,14.47
2019-02-11T21:20:38.768Z,15.57
2019-02-11T21:23:10.512Z,17.17
2019-02-11T21:25:39.902Z,12.97
2019-02-11T21:28:09.232Z,10.87
2019-02-11T21:30:38.569Z,15.10
2019-02-11T21:33:07.900Z,21.73
2019-02-11T21:35:37.231Z,11.90
2019-02-11T21:38:06.565Z,22.67
2019-02-11T21:40:35.896Z,15.50
2019-02-11T21:43:05.228Z,13.03
2019-02-11T21:45:34.561Z,16.00
2019-02-11T21:48:03.897Z,14.77
2019-02-11T21:50:33.230Z,14.27
2019-02-11T21:53:02.564Z,18.47
2019-02-11T21:55:31.896Z,18.17
2019-02-11T21:58:01.234Z,23.00
2019-02-11T22:00:30.592Z,9.80
2019-02-11T22:02:59.924Z,12.97
2019-02-11T22:05:29.257Z,13.87
2019-02-11T22:07:58.584Z,9.33
2019-02-11T22:10:27.916Z,20.07
2019-02-11T22:12:57.255Z,13.97
2019-02-11T22:15:26.682Z,18.30
2019-02-11T22:17:56.007Z,9.10
2019-02-11T22:20:25.341Z,14.33
2019-02-11T22:22:54.668Z,8.63
2019-02-11T22:25:24.005Z,13.97
2019-02-11T22:27:53.334Z,12.57
2019-02-11T22:30:24.779Z,15.70
2019-02-11T22:32:54.112Z,15.43
2019-02-11T22:35:23.439Z,10.07
2019-02-11T22:37:52.947Z,12.37
2019-02-11T22:40:22.283Z,11.77
2019-02-11T22:42:51.607Z,9.60
2019-02-11T22:45:24.617Z,13.23
2019-02-11T22:47:53.947Z,9.00
2019-02-11T22:50:23.346Z,7.63
2019-02-11T22:52:52.676Z,11.97
2019-02-11T22:55:22.038Z,8.33
2019-02-11T22:57:51.368Z,9.17
2019-02-11T23:00:35.523Z,10.47
2019-02-11T23:03:05.688Z,9.93
2019-02-11T23:05:35.091Z,6.77
2019-02-11T23:08:04.601Z,10.57
2019-02-11T23:10:33.923Z,10.47
2019-02-11T23:13:03.251Z,8.97
2019-02-11T23:15:32.579Z,7.63
2019-02-11T23:18:01.907Z,9.97
2019-02-11T23:20:31.240Z,11.63
2019-02-11T23:23:00.573Z,13.33
2019-02-11T23:25:29.902Z,8.17
2019-02-11T23:27:59.235Z,10.23
2019-02-11T23:30:28.568Z,11.37
2019-02-11T23:32:57.904Z,17.00
2019-02-11T23:35:27.241Z,14.83
2019-02-11T23:37:56.568Z,11.03
2019-02-11T23:40:25.903Z,13.23
2019-02-11T23:42:55.232Z,15.60
2019-02-11T23:45:24.569Z,11.10
2019-02-11T23:47:53.891Z,9.90
2019-02-11T23:50:23.225Z,11.67
2019-02-11T23:52:52.561Z,10.30
2019-02-11T23:55:21.891Z,13.07
2019-02-11T23:57:51.219Z,9.50
